Al Rekayyat — V7QF3 — position and weather

sailwx.info

Track history (hours):
 
Tides and Currents Weather Stations Pressure Air Temp Water Temp Dewpoint Dewpoint Depression Visibility Wind Speed Wind Dir Waves Ship Positions

Al Rekayyat

Last reported at 2014-Nov-20 22:32 UTC. Time now 2014-Nov-26 12:50 UTC.
Position N 01°11' E 103°49'.

Length 315 m; draft 9.6 m.

Type: Tanker. MMSI: 538003347.

Date/timePositionNaut miles runAvg speedWind from/ knotsBaromVisibWave heightAir tempDewpointWater temp
2014-Nov-20 22:32N 01°11' E 103°49'7 7.3
2014-Nov-20 21:32N 01°14' E 103°56'8 7.6
2014-Nov-20 20:32N 01°16' E 104°03'9 9.4
2014-Nov-20 19:33N 01°17' E 104°12'10 9.3
2014-Nov-20 18:31N 01°20' E 104°21'  
2014-Nov-14 16:27N 34°59' E 139°32'1612.6
2014-Nov-14 15:12N 35°11' E 139°45'6 9.9
2014-Nov-14 14:33N 35°17' E 139°45'5 2.6
2014-Nov-14 12:33N 35°21' E 139°49'0 0.0
2014-Nov-13 05:33N 35°21' E 139°49'3 3.0
2014-Nov-13 04:33N 35°23' E 139°47'8 8.5
2014-Nov-13 03:33N 35°15' E 139°47'  
Track history (hours):
 
Tides and Currents Weather Stations Pressure Air Temp Water Temp Dewpoint Dewpoint Depression Visibility Wind Speed Wind Dir Waves Ship Positions

Al Rekayyat

Last reported at 2014-Nov-20 22:32 UTC. Time now 2014-Nov-26 12:50 UTC.
Position N 01°11' E 103°49'.

Length 315 m; draft 9.6 m.

Type: Tanker. MMSI: 538003347.

Date/timePositionNaut miles runAvg speedWind from/ knotsBaromVisibWave heightAir tempDewpointWater temp
2014-Nov-20 22:32N 01°11' E 103°49'7 7.3
2014-Nov-20 21:32N 01°14' E 103°56'8 7.6
2014-Nov-20 20:32N 01°16' E 104°03'9 9.4
2014-Nov-20 19:33N 01°17' E 104°12'10 9.3
2014-Nov-20 18:31N 01°20' E 104°21'  
2014-Nov-14 16:27N 34°59' E 139°32'1612.6
2014-Nov-14 15:12N 35°11' E 139°45'6 9.9
2014-Nov-14 14:33N 35°17' E 139°45'5 2.6
2014-Nov-14 12:33N 35°21' E 139°49'0 0.0
2014-Nov-13 05:33N 35°21' E 139°49'3 3.0
2014-Nov-13 04:33N 35°23' E 139°47'8 8.5
2014-Nov-13 03:33N 35°15' E 139°47'  

Dump ship's entire track history